createdAt,value
2019-04-04T00:02:14.015Z,86.40
2019-04-04T00:04:43.867Z,86.70
2019-04-04T00:07:13.661Z,86.60
2019-04-04T00:09:43.519Z,86.60
2019-04-04T00:12:13.299Z,86.60
2019-04-04T00:14:43.890Z,87.10
2019-04-04T00:17:14.188Z,87.30
2019-04-04T00:19:43.965Z,87.20
2019-04-04T00:22:13.731Z,87.20
2019-04-04T00:24:43.528Z,87.60
2019-04-04T00:27:13.832Z,87.40
2019-04-04T00:29:43.700Z,87.80
2019-04-04T00:32:13.466Z,88.00
2019-04-04T00:34:43.265Z,88.10
2019-04-04T00:37:13.043Z,87.80
2019-04-04T00:39:42.831Z,87.80
2019-04-04T00:42:12.623Z,87.90
2019-04-04T00:44:42.409Z,87.70
2019-04-04T00:47:12.203Z,87.80
2019-04-04T00:49:42.065Z,88.30
2019-04-04T00:52:11.846Z,88.20
2019-04-04T00:54:42.992Z,88.20
2019-04-04T00:57:14.798Z,88.00
2019-04-04T00:59:44.579Z,88.30
2019-04-04T01:02:14.372Z,88.40
2019-04-04T01:04:44.309Z,88.30
2019-04-04T01:07:14.079Z,88.50
2019-04-04T01:09:43.865Z,88.30
2019-04-04T01:12:13.667Z,88.40
2019-04-04T01:14:43.461Z,88.60
2019-04-04T01:17:13.257Z,88.50
2019-04-04T01:19:43.036Z,88.50
2019-04-04T01:22:12.823Z,88.60
2019-04-04T01:24:42.613Z,88.40
2019-04-04T01:27:12.455Z,88.30
2019-04-04T01:29:42.234Z,88.50
2019-04-04T01:32:12.026Z,88.20
2019-04-04T01:34:41.806Z,88.40
2019-04-04T01:37:11.584Z,88.40
2019-04-04T01:39:41.371Z,88.80
2019-04-04T01:42:11.143Z,88.20
2019-04-04T01:44:42.240Z,88.20
2019-04-04T01:47:12.619Z,88.10
2019-04-04T01:49:42.411Z,88.00
2019-04-04T01:52:12.197Z,87.90
2019-04-04T01:54:41.983Z,88.00
2019-04-04T01:57:11.847Z,88.20
2019-04-04T01:59:41.993Z,88.70
2019-04-04T02:02:13.202Z,88.90
2019-04-04T02:04:42.979Z,88.70
2019-04-04T02:07:12.760Z,89.00
2019-04-04T02:09:43.494Z,89.10
2019-04-04T02:12:19.706Z,88.60
2019-04-04T02:14:49.746Z,88.60
2019-04-04T02:17:20.115Z,88.50
2019-04-04T02:19:51.054Z,88.00
2019-04-04T02:22:20.831Z,88.10
2019-04-04T02:24:50.627Z,88.40
2019-04-04T02:27:22.024Z,88.40
2019-04-04T02:29:51.864Z,88.10
2019-04-04T02:32:26.101Z,88.00
2019-04-04T02:34:56.871Z,87.80
2019-04-04T02:37:26.351Z,87.90
2019-04-04T02:39:56.128Z,87.80
2019-04-04T02:42:26.067Z,87.70
2019-04-04T02:44:55.858Z,87.60
2019-04-04T02:47:25.653Z,87.50
2019-04-04T02:49:55.425Z,87.30
2019-04-04T02:52:25.228Z,87.20
2019-04-04T02:54:58.277Z,87.20
2019-04-04T02:57:26.591Z,87.00
2019-04-04T02:59:56.517Z,86.90
2019-04-04T03:02:26.397Z,86.80
2019-04-04T03:04:56.308Z,86.60
2019-04-04T03:07:29.615Z,86.60
2019-04-04T03:09:57.717Z,87.10
2019-04-04T03:12:27.521Z,87.60
2019-04-04T03:14:57.315Z,88.60
2019-04-04T03:17:31.555Z,88.00
2019-04-04T03:19:58.607Z,87.90
2019-04-04T03:22:28.453Z,87.90
2019-04-04T03:24:58.276Z,87.70
2019-04-04T03:27:28.136Z,87.60
2019-04-04T03:29:57.923Z,87.60
2019-04-04T03:32:27.743Z,87.90
2019-04-04T03:34:57.597Z,88.00
2019-04-04T03:37:27.380Z,88.30
2019-04-04T03:39:57.176Z,88.50
2019-04-04T03:42:26.965Z,88.30
2019-04-04T03:44:56.789Z,87.90
2019-04-04T03:47:26.627Z,88.00
2019-04-04T03:49:59.125Z,88.10
2019-04-04T03:52:29.102Z,87.60
2019-04-04T03:54:58.922Z,88.10
2019-04-04T03:57:28.710Z,88.10
2019-04-04T03:59:58.501Z,88.40
2019-04-04T04:02:28.289Z,88.40
2019-04-04T04:05:00.950Z,88.20
2019-04-04T04:07:29.608Z,87.90
2019-04-04T04:10:00.408Z,87.50
2019-04-04T04:12:30.423Z,87.70
2019-04-04T04:15:01.300Z,87.40
2019-04-04T04:17:35.971Z,87.30
2019-04-04T04:20:04.883Z,87.40
2019-04-04T04:22:36.423Z,87.50
2019-04-04T04:25:06.602Z,87.40
2019-04-04T04:27:38.742Z,87.20
2019-04-04T04:30:09.096Z,86.90
2019-04-04T04:32:38.940Z,87.00
2019-04-04T04:35:09.240Z,86.70
2019-04-04T04:37:40.147Z,86.50
2019-04-04T04:40:13.800Z,86.30
2019-04-04T04:42:41.435Z,86.20
2019-04-04T04:45:12.497Z,86.40
2019-04-04T04:47:42.622Z,86.50
2019-04-04T04:50:12.594Z,86.40
2019-04-04T04:52:46.321Z,86.40
2019-04-04T04:55:13.967Z,86.50
2019-04-04T04:57:43.809Z,86.30
2019-04-04T05:00:14.013Z,86.60
2019-04-04T05:02:45.302Z,86.70
2019-04-04T05:05:15.298Z,86.80
2019-04-04T05:07:45.067Z,86.80
2019-04-04T05:10:15.613Z,87.40
2019-04-04T05:12:46.552Z,86.60
2019-04-04T05:15:16.368Z,86.10
2019-04-04T05:17:46.157Z,86.20
2019-04-04T05:20:16.028Z,86.20
2019-04-04T05:22:45.840Z,86.40
2019-04-04T05:25:15.904Z,86.30
2019-04-04T05:27:45.676Z,86.20
2019-04-04T05:30:16.594Z,86.30
2019-04-04T05:32:46.652Z,86.10
2019-04-04T05:35:16.471Z,85.90
2019-04-04T05:37:46.326Z,85.80
2019-04-04T05:40:16.576Z,85.60
2019-04-04T05:42:46.423Z,85.70
2019-04-04T05:45:16.379Z,85.50
2019-04-04T05:47:46.564Z,85.40
2019-04-04T05:50:16.629Z,85.60
2019-04-04T05:52:46.564Z,85.70
2019-04-04T05:55:16.367Z,85.60
2019-04-04T05:57:46.155Z,85.50
2019-04-04T06:00:16.269Z,85.50
2019-04-04T06:02:46.064Z,85.30
2019-04-04T06:05:15.866Z,85.10
2019-04-04T06:07:45.631Z,85.00
2019-04-04T06:10:18.146Z,85.00
2019-04-04T06:12:47.044Z,84.90
2019-04-04T06:15:16.826Z,84.70
2019-04-04T06:17:46.620Z,85.10
2019-04-04T06:20:16.459Z,84.90
2019-04-04T06:22:46.255Z,84.90
2019-04-04T06:25:16.081Z,85.10
2019-04-04T06:27:45.906Z,85.20
2019-04-04T06:30:15.831Z,85.00
2019-04-04T06:32:45.692Z,85.00
2019-04-04T06:35:16.135Z,84.80
2019-04-04T06:37:46.340Z,85.00
2019-04-04T06:40:16.670Z,84.90
2019-04-04T06:42:46.472Z,84.70
2019-04-04T06:45:16.266Z,84.50
2019-04-04T06:47:47.110Z,84.60
2019-04-04T06:50:17.046Z,84.40
2019-04-04T06:52:48.297Z,84.70
2019-04-04T06:55:18.328Z,84.70
2019-04-04T06:57:51.431Z,84.50
2019-04-04T07:00:21.489Z,84.30
2019-04-04T07:02:55.233Z,84.30
2019-04-04T07:05:24.684Z,84.10
2019-04-04T07:07:54.495Z,84.00
2019-04-04T07:10:24.329Z,83.80
2019-04-04T07:13:06.232Z,83.40
2019-04-04T07:15:26.414Z,83.50
2019-04-04T07:17:56.312Z,83.40
2019-04-04T07:20:28.386Z,83.30
2019-04-04T07:22:57.612Z,83.00
2019-04-04T07:25:27.413Z,83.10
2019-04-04T07:27:57.300Z,83.60
2019-04-04T07:30:28.517Z,83.10
2019-04-04T07:32:58.734Z,82.80
2019-04-04T07:35:31.560Z,82.90
2019-04-04T07:38:01.380Z,83.40
2019-04-04T07:40:31.169Z,83.40
2019-04-04T07:43:00.971Z,83.40
2019-04-04T07:45:34.141Z,83.00
2019-04-04T07:48:04.048Z,83.30
2019-04-04T07:50:33.842Z,82.90
2019-04-04T07:53:04.850Z,82.60
2019-04-04T07:55:40.124Z,83.10
2019-04-04T07:58:10.581Z,82.90
2019-04-04T08:00:40.364Z,82.70
2019-04-04T08:03:10.180Z,82.70
2019-04-04T08:05:40.028Z,83.00
2019-04-04T08:08:09.808Z,82.90
2019-04-04T08:10:39.595Z,83.20
2019-04-04T08:13:09.416Z,83.10
2019-04-04T08:15:40.830Z,82.90
2019-04-04T08:18:10.630Z,82.70
2019-04-04T08:20:40.421Z,83.10
2019-04-04T08:23:11.944Z,82.90
2019-04-04T08:25:41.812Z,83.30
2019-04-04T08:28:11.694Z,83.80
2019-04-04T08:30:41.596Z,83.90
2019-04-04T08:33:12.680Z,83.80
2019-04-04T08:35:42.498Z,84.10
2019-04-04T08:38:12.319Z,84.50
2019-04-04T08:40:42.100Z,84.40
2019-04-04T08:43:11.892Z,84.30
2019-04-04T08:45:41.704Z,84.10
2019-04-04T08:48:11.500Z,84.30
2019-04-04T08:50:41.286Z,84.10
2019-04-04T08:53:11.087Z,84.10
2019-04-04T08:55:40.884Z,83.70
2019-04-04T08:58:10.688Z,83.80
2019-04-04T09:00:42.133Z,83.80
2019-04-04T09:03:11.992Z,83.70
2019-04-04T09:05:42.762Z,84.10
2019-04-04T09:08:12.546Z,84.20
2019-04-04T09:10:42.350Z,84.40
2019-04-04T09:13:13.026Z,84.30
2019-04-04T09:15:42.845Z,83.80
2019-04-04T09:18:12.704Z,83.80
2019-04-04T09:20:42.577Z,83.00
2019-04-04T09:23:12.384Z,82.70
2019-04-04T09:25:42.153Z,82.80
2019-04-04T09:28:11.952Z,82.80
2019-04-04T09:30:41.727Z,82.70
2019-04-04T09:33:11.554Z,82.10
2019-04-04T09:35:41.441Z,82.70
2019-04-04T09:38:11.236Z,82.20
2019-04-04T09:40:41.052Z,82.50
2019-04-04T09:43:10.908Z,82.70
2019-04-04T09:45:41.385Z,83.00
2019-04-04T09:48:11.176Z,83.10
2019-04-04T09:50:40.978Z,82.50
2019-04-04T09:53:10.772Z,82.30
2019-04-04T09:55:40.618Z,82.60
2019-04-04T09:58:10.429Z,81.40
2019-04-04T10:00:40.756Z,82.20
2019-04-04T10:03:10.621Z,82.10
2019-04-04T10:05:40.452Z,82.70
2019-04-04T10:08:10.368Z,82.90
2019-04-04T10:10:40.159Z,83.10
2019-04-04T10:13:09.952Z,82.80
2019-04-04T10:15:41.295Z,82.80
2019-04-04T10:18:11.068Z,81.80
2019-04-04T10:20:40.856Z,80.50
2019-04-04T10:23:13.223Z,80.20
2019-04-04T10:25:43.463Z,80.00
2019-04-04T10:28:13.256Z,80.20
2019-04-04T10:30:43.040Z,79.70
2019-04-04T10:33:12.844Z,80.20
2019-04-04T10:35:45.312Z,80.60
2019-04-04T10:38:15.340Z,80.50
2019-04-04T10:40:45.152Z,80.00
2019-04-04T10:43:14.941Z,79.20
2019-04-04T10:45:44.719Z,79.30
2019-04-04T10:48:14.525Z,78.50
2019-04-04T10:50:44.368Z,78.70
2019-04-04T10:53:14.182Z,78.90
2019-04-04T10:55:44.004Z,78.30
2019-04-04T10:58:13.835Z,79.00
2019-04-04T11:00:45.292Z,78.80
2019-04-04T11:03:15.092Z,78.60
2019-04-04T11:05:44.883Z,78.30
2019-04-04T11:08:14.674Z,78.40
2019-04-04T11:10:44.487Z,77.80
2019-04-04T11:13:14.436Z,77.80
2019-04-04T11:15:45.873Z,77.60
2019-04-04T11:18:15.652Z,77.90
2019-04-04T11:20:45.464Z,78.30
2019-04-04T11:23:15.350Z,78.50
2019-04-04T11:25:45.172Z,78.30
2019-04-04T11:28:15.031Z,79.00
2019-04-04T11:30:46.363Z,79.90
2019-04-04T11:33:16.214Z,80.10
2019-04-04T11:35:46.120Z,79.90
2019-04-04T11:38:15.920Z,80.00
2019-04-04T11:40:45.707Z,79.30
2019-04-04T11:43:15.504Z,79.30
2019-04-04T11:45:45.304Z,79.70
2019-04-04T11:48:15.103Z,79.00
2019-04-04T11:50:44.888Z,79.00
2019-04-04T11:53:14.743Z,78.50
2019-04-04T11:55:44.558Z,78.40
2019-04-04T11:58:15.963Z,78.50
2019-04-04T12:00:50.258Z,78.40
2019-04-04T12:03:20.063Z,78.30
2019-04-04T12:05:50.860Z,78.90
2019-04-04T12:08:20.642Z,79.20
2019-04-04T12:10:50.475Z,79.00
2019-04-04T12:13:20.324Z,79.70
2019-04-04T12:15:50.175Z,79.00
2019-04-04T12:18:21.138Z,79.50
2019-04-04T12:20:51.524Z,79.10
2019-04-04T12:23:21.311Z,78.50
2019-04-04T12:25:51.103Z,77.80
2019-04-04T12:28:20.948Z,78.30
2019-04-04T12:30:50.715Z,78.90
2019-04-04T12:33:20.538Z,79.00
2019-04-04T12:35:52.435Z,78.80
2019-04-04T12:38:23.359Z,78.80
2019-04-04T12:40:53.144Z,78.90
2019-04-04T12:43:23.091Z,79.00
2019-04-04T12:45:52.905Z,79.00
2019-04-04T12:48:22.713Z,79.50
2019-04-04T12:50:52.531Z,79.60
2019-04-04T12:53:22.315Z,79.70
2019-04-04T12:55:54.146Z,80.50
2019-04-04T12:58:23.679Z,81.40
2019-04-04T13:00:53.456Z,82.10
2019-04-04T13:03:23.223Z,82.40
2019-04-04T13:05:53.028Z,82.10
2019-04-04T13:08:22.797Z,82.10
2019-04-04T13:10:54.295Z,81.90
2019-04-04T13:13:24.075Z,80.70
2019-04-04T13:15:53.949Z,80.50
2019-04-04T13:18:23.749Z,80.30
2019-04-04T13:20:53.590Z,81.20
2019-04-04T13:23:23.472Z,81.60
2019-04-04T13:25:53.272Z,81.90
2019-04-04T13:28:23.061Z,82.50
2019-04-04T13:30:52.864Z,82.60
2019-04-04T13:33:22.748Z,83.50
2019-04-04T13:35:52.536Z,84.40
2019-04-04T13:38:24.892Z,84.40
2019-04-04T13:40:54.758Z,84.30
2019-04-04T13:43:24.550Z,84.10
2019-04-04T13:45:54.326Z,83.80
2019-04-04T13:48:24.116Z,84.00
2019-04-04T13:50:53.968Z,84.10
2019-04-04T13:53:25.401Z,83.60
2019-04-04T13:55:58.224Z,83.90
2019-04-04T13:58:26.724Z,84.00
2019-04-04T14:00:56.546Z,84.30
2019-04-04T14:03:26.396Z,84.40
2019-04-04T14:05:56.184Z,84.00
2019-04-04T14:08:27.508Z,84.50
2019-04-04T14:10:58.529Z,84.80
2019-04-04T14:13:28.584Z,84.90
2019-04-04T14:15:58.370Z,85.10
2019-04-04T14:18:38.960Z,85.60
2019-04-04T14:21:03.931Z,85.60
2019-04-04T14:23:31.351Z,85.30
2019-04-04T14:26:01.138Z,85.10
2019-04-04T14:28:32.061Z,84.70
2019-04-04T14:31:05.318Z,84.90
2019-04-04T14:33:35.216Z,85.00
2019-04-04T14:36:05.374Z,85.30
2019-04-04T14:38:35.173Z,84.90
2019-04-04T14:41:10.976Z,84.90
2019-04-04T14:43:36.498Z,84.60
2019-04-04T14:46:06.284Z,84.30
2019-04-04T14:48:38.349Z,84.40
2019-04-04T14:51:08.513Z,85.00
2019-04-04T14:53:38.388Z,85.10
2019-04-04T14:56:08.218Z,85.70
2019-04-04T14:58:38.034Z,85.90
2019-04-04T15:01:07.918Z,86.50
2019-04-04T15:03:37.775Z,87.00
2019-04-04T15:06:07.593Z,87.20
2019-04-04T15:08:41.712Z,87.80
2019-04-04T15:11:23.457Z,88.50
2019-04-04T15:13:43.863Z,89.10
2019-04-04T15:16:16.311Z,89.40
2019-04-04T15:18:46.641Z,89.20
2019-04-04T15:21:18.273Z,89.10
2019-04-04T15:23:48.076Z,88.00
2019-04-04T15:26:17.852Z,88.90
2019-04-04T15:28:47.663Z,89.60
2019-04-04T15:31:17.482Z,89.10
2019-04-04T15:33:50.240Z,89.20
2019-04-04T15:36:18.897Z,89.40
2019-04-04T15:38:48.684Z,89.30
2019-04-04T15:41:18.566Z,89.00
2019-04-04T15:43:49.550Z,88.40
2019-04-04T15:46:19.352Z,88.30
2019-04-04T15:48:49.131Z,88.20
2019-04-04T15:51:18.947Z,87.70
2019-04-04T15:53:48.789Z,87.60
2019-04-04T15:56:18.576Z,87.60
2019-04-04T15:58:48.356Z,87.60
2019-04-04T16:01:19.114Z,87.70
2019-04-04T16:03:48.905Z,87.50
2019-04-04T16:06:18.711Z,87.40
2019-04-04T16:08:48.490Z,87.20
2019-04-04T16:11:18.306Z,86.80
2019-04-04T16:13:49.789Z,87.20
2019-04-04T16:16:19.573Z,87.00
2019-04-04T16:18:49.372Z,87.10
2019-04-04T16:21:19.200Z,87.20
2019-04-04T16:23:50.554Z,87.70
2019-04-04T16:26:20.397Z,88.10
2019-04-04T16:28:50.237Z,87.80
2019-04-04T16:31:22.762Z,88.10
2019-04-04T16:33:52.642Z,88.20
2019-04-04T16:36:22.457Z,88.50
2019-04-04T16:38:52.256Z,88.00
2019-04-04T16:41:24.189Z,87.30
2019-04-04T16:43:53.975Z,87.10
2019-04-04T16:46:23.788Z,87.50
2019-04-04T16:48:53.581Z,87.20
2019-04-04T16:51:23.373Z,87.00
2019-04-04T16:53:53.167Z,87.00
2019-04-04T16:56:22.947Z,86.80
2019-04-04T16:58:52.739Z,86.90
2019-04-04T17:01:22.540Z,86.80
2019-04-04T17:04:01.417Z,86.90
2019-04-04T17:06:23.849Z,87.40
2019-04-04T17:08:53.661Z,87.80
2019-04-04T17:11:23.451Z,88.30
2019-04-04T17:13:53.590Z,88.70
2019-04-04T17:16:23.415Z,88.80
2019-04-04T17:18:53.204Z,88.40
2019-04-04T17:21:23.020Z,88.40
2019-04-04T17:23:52.815Z,88.80
2019-04-04T17:26:22.612Z,89.30
2019-04-04T17:28:52.452Z,89.10
2019-04-04T17:31:22.717Z,89.00
2019-04-04T17:33:52.703Z,88.90
2019-04-04T17:36:22.553Z,88.70
2019-04-04T17:38:54.959Z,88.40
2019-04-04T17:41:23.849Z,88.10
2019-04-04T17:43:54.066Z,88.00
2019-04-04T17:46:25.135Z,88.00
2019-04-04T17:48:55.304Z,87.90
2019-04-04T17:51:25.286Z,87.70
2019-04-04T17:53:56.875Z,87.80
2019-04-04T17:56:27.224Z,87.80
2019-04-04T17:58:57.034Z,87.90
2019-04-04T18:01:26.830Z,88.20
2019-04-04T18:03:56.625Z,89.20
2019-04-04T18:06:26.419Z,89.40
2019-04-04T18:08:56.282Z,89.30
2019-04-04T18:11:26.088Z,89.60
2019-04-04T18:13:55.880Z,89.70
2019-04-04T18:16:25.676Z,89.20
2019-04-04T18:18:55.474Z,88.50
2019-04-04T18:21:25.301Z,89.00
2019-04-04T18:23:55.086Z,88.60
2019-04-04T18:26:24.893Z,88.80
2019-04-04T18:28:54.747Z,88.80
2019-04-04T18:31:24.530Z,88.60
2019-04-04T18:33:54.371Z,88.50
2019-04-04T18:36:24.404Z,88.40
2019-04-04T18:38:54.248Z,88.10
2019-04-04T18:41:24.028Z,88.20
2019-04-04T18:43:53.816Z,88.30
2019-04-04T18:46:23.602Z,88.50
2019-04-04T18:48:53.395Z,88.50
2019-04-04T18:51:23.249Z,88.60
2019-04-04T18:53:53.057Z,88.30
2019-04-04T18:56:22.863Z,88.40
2019-04-04T18:58:52.660Z,88.40
2019-04-04T19:01:22.446Z,88.40
2019-04-04T19:03:52.310Z,88.50
2019-04-04T19:06:22.215Z,88.70
2019-04-04T19:08:53.207Z,89.10
2019-04-04T19:11:23.008Z,90.10
2019-04-04T19:13:52.794Z,89.50
2019-04-04T19:16:22.587Z,89.30
2019-04-04T19:18:52.372Z,89.70
2019-04-04T19:21:23.230Z,89.90
2019-04-04T19:23:53.036Z,89.70
2019-04-04T19:26:22.834Z,89.50
2019-04-04T19:28:52.716Z,90.00
2019-04-04T19:31:22.546Z,89.40
2019-04-04T19:33:52.384Z,89.80
2019-04-04T19:36:22.159Z,89.70
2019-04-04T19:38:51.952Z,89.70
2019-04-04T19:41:21.749Z,89.50
2019-04-04T19:43:51.619Z,89.30
2019-04-04T19:46:21.414Z,89.10
2019-04-04T19:48:51.203Z,89.20
2019-04-04T19:51:21.010Z,89.20
2019-04-04T19:53:50.866Z,89.50
2019-04-04T19:56:20.658Z,89.50
2019-04-04T19:58:50.460Z,89.60
2019-04-04T20:01:20.262Z,90.00
2019-04-04T20:03:50.043Z,90.00
2019-04-04T20:06:19.850Z,90.10
2019-04-04T20:08:52.218Z,90.30
2019-04-04T20:11:21.128Z,90.30
2019-04-04T20:13:51.208Z,90.20
2019-04-04T20:16:21.386Z,90.30
2019-04-04T20:18:51.406Z,90.30
2019-04-04T20:21:21.768Z,90.30
2019-04-04T20:23:51.575Z,90.30
2019-04-04T20:26:22.497Z,90.30
2019-04-04T20:28:52.288Z,90.40
2019-04-04T20:31:22.121Z,90.40
2019-04-04T20:34:01.422Z,90.40
2019-04-04T20:36:23.419Z,90.40
2019-04-04T20:38:53.235Z,90.40
2019-04-04T20:41:23.025Z,90.40
2019-04-04T20:43:52.814Z,90.40
2019-04-04T20:46:22.631Z,90.30
2019-04-04T20:48:52.448Z,90.30
2019-04-04T20:51:22.251Z,90.20
2019-04-04T20:53:52.055Z,90.30
2019-04-04T20:56:21.847Z,90.40
2019-04-04T20:58:51.644Z,90.40
2019-04-04T21:01:21.432Z,90.50
2019-04-04T21:03:51.244Z,90.50
2019-04-04T21:06:21.025Z,90.60
2019-04-04T21:08:50.820Z,90.70
2019-04-04T21:11:20.632Z,90.70
2019-04-04T21:13:56.304Z,90.60
2019-04-04T21:16:22.562Z,90.70
2019-04-04T21:18:52.358Z,90.60
2019-04-04T21:21:22.170Z,90.70
2019-04-04T21:23:51.950Z,90.60
2019-04-04T21:26:21.812Z,90.50
2019-04-04T21:28:51.608Z,90.50
2019-04-04T21:31:21.397Z,90.50
2019-04-04T21:33:51.191Z,90.50
2019-04-04T21:36:20.982Z,90.50
2019-04-04T21:38:50.776Z,90.20
2019-04-04T21:41:20.571Z,90.30
2019-04-04T21:43:50.376Z,90.30
2019-04-04T21:46:20.162Z,90.40
2019-04-04T21:48:49.996Z,90.50
2019-04-04T21:51:19.783Z,90.40
2019-04-04T21:53:49.574Z,90.40
2019-04-04T21:56:20.446Z,90.30
2019-04-04T21:58:50.228Z,90.30
2019-04-04T22:01:20.366Z,90.30
2019-04-04T22:03:51.828Z,90.30
2019-04-04T22:06:21.776Z,90.20
2019-04-04T22:08:51.552Z,90.20
2019-04-04T22:11:21.348Z,90.20
2019-04-04T22:13:51.139Z,90.20
2019-04-04T22:16:20.932Z,90.10
2019-04-04T22:18:50.728Z,90.10
2019-04-04T22:21:20.518Z,90.10
2019-04-04T22:23:50.311Z,90.20
2019-04-04T22:26:20.117Z,90.30
2019-04-04T22:28:49.907Z,90.30
2019-04-04T22:31:19.691Z,90.20
2019-04-04T22:33:49.497Z,90.30
2019-04-04T22:36:19.295Z,90.20
2019-04-04T22:38:49.099Z,90.20
2019-04-04T22:41:18.885Z,90.20
2019-04-04T22:43:49.095Z,90.20
2019-04-04T22:46:18.891Z,90.20
2019-04-04T22:48:48.685Z,90.20
2019-04-04T22:51:18.496Z,90.10
2019-04-04T22:53:48.271Z,90.10
2019-04-04T22:56:18.068Z,90.10
2019-04-04T22:58:47.871Z,90.10
2019-04-04T23:01:17.669Z,90.20
2019-04-04T23:03:47.475Z,90.10
2019-04-04T23:06:17.263Z,90.30
2019-04-04T23:09:07.081Z,89.80
2019-04-04T23:11:36.912Z,89.70
2019-04-04T23:14:06.803Z,89.70
2019-04-04T23:16:36.590Z,90.00
2019-04-04T23:19:06.386Z,90.10
2019-04-04T23:21:36.180Z,90.00
2019-04-04T23:24:05.964Z,90.00
2019-04-04T23:26:35.754Z,90.20
2019-04-04T23:29:05.554Z,89.80
2019-04-04T23:31:35.345Z,89.90
2019-04-04T23:34:06.205Z,89.50
2019-04-04T23:36:36.011Z,89.30
2019-04-04T23:39:07.130Z,88.90
2019-04-04T23:41:36.957Z,88.80
2019-04-04T23:44:06.706Z,88.90
2019-04-04T23:46:36.504Z,89.20
2019-04-04T23:49:06.286Z,89.00
2019-04-04T23:51:36.079Z,88.90
2019-04-04T23:54:05.851Z,89.00
2019-04-04T23:56:35.646Z,89.00
2019-04-04T23:59:05.505Z,88.90
